YMT weather

Chapais Airport
Chibougamau, Quebec, Canada

Public forecast

Using degrees Celsius for public forecast. Weather courtesy of forecast.io.

Current aviation weather report (METAR) for Chapais Airport

Retrieved 2020/07/04 02:00 UTC (45 minutes ago):

CYMT 040200Z AUTO 34006KT 9SM CLR 19/03 A2994 RMK SLP141 DENSITY ALT 2000FT

Aviation forecast (TAF) for Chapais Airport

Forecast is more than 6 hours old.

Retrieved 2020/07/03 18:00 UTC (9 hours ago):

TAF CYMT 031738Z 0318/0324 31010G20KT P6SM BKN240 RMK FCST BASED ON AUTO OBS NXT FCST WILL BE ISSUED AT 041145Z